• Join FlightAware (Why Join?)
  • Login
  • US Flag 
08:22AM EDT


 

Airport Tracker/Info


-or-


 

Live Flight TrackerFlight Track Log ✈ FLG3862 ✈ 16-May-2013 ✈ KDTW - KBTV

Flight Track Log - Related Links

Times and Time Zones

All times are in EDT time to prevent confusion due to time zone crossing. See the FLG3862 flight status page for this flight to view local times or setup timezone preferences in your user account.

Time Position Orientation Groundspeed Altitude Reporting Facility
EDT Latitude Longitude Course Direction KTS MPH feet Rate Location/Type
10:53AM 42.1994 -83.3581 94° East 163 188 1,200  Level Cleveland Center
10:54AM 42.1472 -83.3586 180° South 221 254 2,900 1,800 Climbing Cleveland Center
10:55AM 42.0828 -83.3531 176° South 258 297 4,900 2,280 Climbing Cleveland Center
10:56AM 42.3203 -82.7143 82° East  Level FlightAware Approximate
10:56AM 42.0431 -83.2703 123° Southeast 283 326 7,600  Level Cleveland Center
10:57AM 42.3410 -82.5529 71° East  Level FlightAware Approximate
10:57AM 42.0967 -83.1100 66° East 299 344 10,100  Level Cleveland Center
10:58AM 42.3665 -82.3974 94° East  Level FlightAware Approximate
10:58AM 42.1428 -83.0028 60° Northeast 309 356 11,900  Level Cleveland Center
10:59AM 42.1911 -82.8869 61° Northeast 331 381 13,500 1,440 Climbing Cleveland Center
11:00AM 42.2417 -82.7483 64° Northeast 364 419 14,800 1,500 Climbing Cleveland Center
11:01AM 42.2425 -82.5914 90° East 400 460 16,500 1,680 Climbing Cleveland Center
11:02AM 42.2389 -82.4342 92° East 406 467 18,200 1,500 Climbing Cleveland Center
11:03AM 42.2394 -82.2658 90° East 412 474 19,600 1,200 Climbing Cleveland Center
11:04AM 42.2372 -82.1200 91° East 431 496 20,700 1,140 Climbing Cleveland Center
11:05AM 42.2372 -81.9544 90° East 440 506 21,900 1,020 Climbing Cleveland Center
11:06AM 42.2372 -81.7836 90° East 446 513 22,800 780 Climbing Cleveland Center
11:07AM 42.2347 -81.5983 91° East 451 519 23,500 660 Climbing Cleveland Center
11:08AM 42.2342 -81.4217 90° East 466 536 24,200 660 Climbing Cleveland Center
11:09AM 42.2311 -81.2394 91° East 471 542 24,900 660 Climbing Cleveland Center
11:10AM 42.2300 -81.0600 90° East 481 554 25,600 720 Climbing Cleveland Center
11:11AM 42.2283 -80.8803 91° East 481 554 26,400 720 Climbing Cleveland Center
11:12AM 42.2267 -80.7008 91° East 474 545 27,100 600 Climbing Cleveland Center
11:13AM 42.2433 -80.5186 83° East 482 555 27,700 540 Climbing Cleveland Center
11:14AM 42.3017 -80.3586 64° Northeast 466 536 28,200 420 Climbing Cleveland Center
11:15AM 42.3533 -80.2122 64° Northeast 471 542 28,600 420 Climbing Cleveland Center
11:16AM 42.4111 -80.0461 65° Northeast 477 549 29,100 420 Climbing Cleveland Center
11:17AM 42.4725 -79.8653 65° Northeast 477 549 29,500 420 Climbing Cleveland Center
11:18AM 42.5297 -79.7014 65° Northeast 477 549 30,000 540 Climbing Cleveland Center
11:19AM 42.5806 -79.5511 65° Northeast 477 549 30,600 480 Climbing Cleveland Center
11:20AM 42.6311 -79.3894 67° East 477 549 31,000 180 Climbing Cleveland Center
11:21AM 42.6878 -79.2189 66° East 477 549 31,000  Level Cleveland Center
11:22AM 42.7439 -79.0481 66° East 482 555 31,000  Level Cleveland Center
11:23AM 42.8019 -78.8797 65° Northeast 482 555 31,000  Level Cleveland Center
11:24AM 42.8575 -78.7025 67° East 482 555 31,000  Level Cleveland Center
11:25AM 42.9150 -78.5222 66° East 496 571 31,000  Level Cleveland Center
11:26AM 42.9719 -78.3417 67° East 503 579 31,000  Level Cleveland Center
11:27AM 43.0289 -78.1633 66° East 503 579 31,000  Level Cleveland Center
11:28AM 43.0875 -77.9819 66° East 508 585 31,000  Level Cleveland Center
11:29AM 43.1436 -77.8003 67° East 508 585 31,000  Level Cleveland Center
11:31AM 43.2439 -77.4719 67° East 518 596 31,000  Level Boston Center
11:32AM 43.3042 -77.2856 66° East 524 603 31,000  Level Boston Center
11:33AM 43.3600 -77.0986 68° East 524 603 31,000  Level Boston Center
11:34AM 43.4197 -76.9089 67° East 524 603 31,000  Level Boston Center
11:35AM 43.4769 -76.7211 67° East 524 603 31,000  Level Boston Center
11:36AM 43.5408 -76.5108 67° East 529 609 31,000  Level Boston Center
11:37AM 43.5956 -76.3194 68° East 529 609 31,000  Level Boston Center
11:38AM 43.6539 -76.1281 67° East 529 609 31,000 -60 Level Boston Center
11:39AM 43.7100 -75.9331 68° East 529 609 30,900 -60 Descending Boston Center
11:40AM 43.7639 -75.7378 69° East 534 615 30,900  Level Boston Center
11:41AM 43.8233 -75.5425 67° East 539 620 30,900  Level Boston Center
11:42AM 43.8767 -75.3464 69° East 544 626 30,900 -1,020 Level Boston Center
11:43AM 43.9336 -75.1444 69° East 549 632 28,900 -1,860 Descending Boston Center
11:44AM 43.9814 -74.9706 69° East 549 632 27,200 -2,160 Descending Boston Center
11:46AM 44.0892 -74.5906 68° East 528 608 22,500 -2,280 Descending Boston Center
11:47AM 44.1361 -74.4072 70° East 513 590 20,500 -1,800 Descending Boston Center
11:48AM 44.1828 -74.2408 69° East 481 554 18,900 -1,740 Descending Boston Center
11:49AM 44.2225 -74.0883 70° East 442 509 17,100 -1,620 Descending Boston Center
11:50AM 44.2619 -73.9417 69° East 415 478 15,700 -1,500 Descending Boston Center
11:51AM 44.3033 -73.7889 69° East 410 472 14,100 -1,740 Descending Boston Center
11:52AM 44.3447 -73.6361 69° East 394 453 12,300 -1,740 Descending Boston Center
11:53AM 44.3772 -73.5089 70° East 357 411 10,700 -1,800 Descending Boston Center
11:54AM 44.3742 -73.3811 92° East 322 371 8,800 -1,380 Descending Boston Center
11:55AM 44.3497 -73.2906 111° Southeast 314 361 8,000 -1,260 Descending Boston Center
11:56AM 44.3175 -73.1567 109° East 302 348 6,300 -1,080 Descending Boston Center
11:57AM 44.2972 -73.0578 106° East 283 326 5,900 -480 Descending Boston Center
11:58AM 44.3392 -72.9800 53° Northeast 228 262 5,400 -900 Descending Boston Center
11:59AM 44.3828 -73.0122 332° Northwest 119 137 4,200 -1,440 Descending Boston Center
12:00PM 44.4097 -73.0533 313° West 105 121 2,600 -1,500 Descending Boston Center
12:01PM 44.4344 -73.0942 310° West 123 142 1,300 -1,320 Descending Boston Center